createdAt,value
2023-04-16T00:01:18.281Z,26.33
2023-04-16T00:03:46.985Z,25.07
2023-04-16T00:06:15.398Z,20.60
2023-04-16T00:08:43.730Z,20.33
2023-04-16T00:11:12.371Z,24.10
2023-04-16T00:13:40.437Z,21.63
2023-04-16T00:16:09.150Z,25.43
2023-04-16T00:18:39.298Z,24.93
2023-04-16T00:21:08.239Z,26.37
2023-04-16T00:23:36.303Z,25.03
2023-04-16T00:26:04.376Z,27.30
2023-04-16T00:28:32.396Z,23.17
2023-04-16T00:31:02.078Z,26.00
2023-04-16T00:33:30.873Z,25.63
2023-04-16T00:36:00.296Z,25.67
2023-04-16T00:38:30.344Z,29.07
2023-04-16T00:40:58.816Z,25.60
2023-04-16T00:43:27.966Z,24.13
2023-04-16T00:45:58.022Z,28.57
2023-04-16T00:48:27.837Z,24.73
2023-04-16T00:50:56.515Z,24.57
2023-04-16T00:53:26.537Z,25.90
2023-04-16T00:55:56.093Z,25.83
2023-04-16T00:58:24.582Z,26.50
2023-04-16T01:00:52.871Z,24.77
2023-04-16T01:03:21.155Z,24.10
2023-04-16T01:05:50.631Z,25.63
2023-04-16T01:08:19.986Z,27.07
2023-04-16T01:10:49.406Z,23.63
2023-04-16T01:13:17.435Z,25.53
2023-04-16T01:15:45.593Z,23.70
2023-04-16T01:18:17.181Z,24.87
2023-04-16T01:20:46.905Z,23.90
2023-04-16T01:23:15.175Z,26.37
2023-04-16T01:25:43.288Z,23.97
2023-04-16T01:28:12.269Z,23.27
2023-04-16T01:30:40.456Z,20.97
2023-04-16T01:33:22.622Z,24.70
2023-04-16T01:35:52.064Z,25.37
2023-04-16T01:38:20.207Z,26.73
2023-04-16T01:40:48.219Z,24.87
2023-04-16T01:43:16.324Z,22.57
2023-04-16T01:45:44.380Z,23.77
2023-04-16T01:48:13.506Z,24.03
2023-04-16T01:50:41.853Z,22.87
2023-04-16T01:53:11.289Z,23.27
2023-04-16T01:55:39.357Z,21.07
2023-04-16T01:58:10.560Z,24.97
2023-04-16T02:00:39.729Z,22.93
2023-04-16T02:03:07.922Z,25.00
2023-04-16T02:05:36.051Z,25.20
2023-04-16T02:08:04.236Z,23.30
2023-04-16T02:10:33.620Z,26.03
2023-04-16T02:13:01.982Z,24.70
2023-04-16T02:15:30.308Z,24.67
2023-04-16T02:17:58.607Z,25.30
2023-04-16T02:20:27.163Z,24.53
2023-04-16T02:22:59.807Z,27.70
2023-04-16T02:25:28.945Z,26.50
2023-04-16T02:28:00.150Z,26.83
2023-04-16T02:30:37.136Z,25.17
2023-04-16T02:33:07.310Z,26.97
2023-04-16T02:35:36.460Z,25.07
2023-04-16T02:38:05.302Z,23.33
2023-04-16T02:40:33.580Z,25.57
2023-04-16T02:43:02.990Z,27.50
2023-04-16T02:45:31.606Z,25.40
2023-04-16T02:48:00.686Z,25.17
2023-04-16T02:50:28.785Z,24.50
2023-04-16T02:52:56.840Z,26.33
2023-04-16T02:55:24.885Z,25.13
2023-04-16T02:57:52.984Z,26.40
2023-04-16T03:00:22.695Z,25.27
2023-04-16T03:02:50.908Z,25.00
2023-04-16T03:05:19.419Z,25.50
2023-04-16T03:07:48.005Z,28.37
2023-04-16T03:10:16.887Z,28.63
2023-04-16T03:12:44.944Z,26.60
2023-04-16T03:15:13.146Z,25.97
2023-04-16T03:17:43.161Z,26.00
2023-04-16T03:20:11.699Z,27.00
2023-04-16T03:22:39.959Z,25.43
2023-04-16T03:25:08.936Z,26.17
2023-04-16T03:27:36.976Z,27.57
2023-04-16T03:30:06.443Z,26.97
2023-04-16T03:32:36.073Z,23.17
2023-04-16T03:35:08.286Z,24.47
2023-04-16T03:37:36.833Z,25.93
2023-04-16T03:40:07.042Z,29.27
2023-04-16T03:42:35.421Z,23.80
2023-04-16T03:45:04.083Z,27.20
2023-04-16T03:47:33.286Z,24.87
2023-04-16T03:50:04.067Z,22.10
2023-04-16T03:52:33.431Z,22.83
2023-04-16T03:55:03.727Z,25.90
2023-04-16T03:57:32.697Z,23.80
2023-04-16T04:00:10.096Z,24.17
2023-04-16T04:02:56.924Z,23.13
2023-04-16T04:05:25.210Z,24.73
2023-04-16T04:07:55.144Z,27.60
2023-04-16T04:10:23.851Z,25.77
2023-04-16T04:12:52.023Z,27.47
2023-04-16T04:15:20.197Z,26.57
2023-04-16T04:17:48.753Z,27.63
2023-04-16T04:20:17.021Z,27.20
2023-04-16T04:22:47.077Z,26.87
2023-04-16T04:25:17.541Z,26.60
2023-04-16T04:27:45.616Z,27.83
2023-04-16T04:30:13.717Z,25.70
2023-04-16T04:32:42.809Z,30.37
2023-04-16T04:35:11.264Z,27.07
2023-04-16T04:37:39.338Z,27.47
2023-04-16T04:40:18.105Z,29.90
2023-04-16T04:42:46.873Z,26.47
2023-04-16T04:45:15.230Z,28.30
2023-04-16T04:47:43.401Z,27.33
2023-04-16T04:50:12.198Z,27.77
2023-04-16T04:52:40.214Z,27.30
2023-04-16T04:55:09.737Z,26.70
2023-04-16T04:57:39.202Z,28.53
2023-04-16T05:00:08.861Z,27.53
2023-04-16T05:02:45.899Z,27.63
2023-04-16T05:05:14.034Z,25.97
2023-04-16T05:07:42.098Z,25.70
2023-04-16T05:10:11.051Z,28.53
2023-04-16T05:12:42.652Z,26.27
2023-04-16T05:15:11.484Z,26.87
2023-04-16T05:17:39.577Z,26.37
2023-04-16T05:20:09.125Z,24.93
2023-04-16T05:22:37.208Z,26.47
2023-04-16T05:25:05.731Z,24.50
2023-04-16T05:27:33.761Z,27.37
2023-04-16T05:30:03.249Z,25.00
2023-04-16T05:32:31.323Z,26.87
2023-04-16T05:34:59.431Z,24.50
2023-04-16T05:37:27.457Z,25.40
2023-04-16T05:39:55.529Z,23.03
2023-04-16T05:42:23.577Z,23.87
2023-04-16T05:44:52.345Z,25.60
2023-04-16T05:47:22.008Z,24.20
2023-04-16T05:49:50.053Z,25.93
2023-04-16T05:52:18.088Z,23.83
2023-04-16T05:54:46.122Z,26.13
2023-04-16T05:57:14.747Z,27.20
2023-04-16T05:59:42.786Z,24.57
2023-04-16T06:02:10.963Z,25.43
2023-04-16T06:04:40.439Z,25.77
2023-04-16T06:07:08.470Z,23.50
2023-04-16T06:09:36.492Z,25.33
2023-04-16T06:12:05.215Z,26.77
2023-04-16T06:14:33.252Z,24.33
2023-04-16T06:17:01.368Z,25.73
2023-04-16T06:19:29.449Z,29.03
2023-04-16T06:21:58.967Z,23.80
2023-04-16T06:24:26.987Z,23.83
2023-04-16T06:26:55.441Z,27.57
2023-04-16T06:29:30.686Z,24.10
2023-04-16T06:32:06.119Z,24.43
2023-04-16T06:34:34.262Z,23.57
2023-04-16T06:37:03.807Z,25.23
2023-04-16T06:39:32.099Z,27.27
2023-04-16T06:42:00.176Z,23.17
2023-04-16T06:44:28.287Z,22.90
2023-04-16T06:46:56.363Z,25.23
2023-04-16T06:49:24.440Z,25.47
2023-04-16T06:51:52.448Z,25.63
2023-04-16T06:54:21.893Z,22.67
2023-04-16T06:56:49.902Z,24.27
2023-04-16T06:59:17.967Z,24.50
2023-04-16T07:01:46.102Z,24.20
2023-04-16T07:04:14.198Z,24.07
2023-04-16T07:06:42.275Z,25.70
2023-04-16T07:09:10.476Z,26.10
2023-04-16T07:11:40.190Z,25.60
2023-04-16T07:14:08.256Z,24.07
2023-04-16T07:16:37.650Z,25.27
2023-04-16T07:19:05.843Z,23.27
2023-04-16T07:21:33.904Z,24.17
2023-04-16T07:24:01.894Z,22.70
2023-04-16T07:26:29.923Z,22.97
2023-04-16T07:28:59.262Z,23.10
2023-04-16T07:31:27.917Z,22.30
2023-04-16T07:33:56.002Z,22.57
2023-04-16T07:36:24.029Z,21.83
2023-04-16T07:38:52.034Z,20.87
2023-04-16T07:41:20.149Z,24.50
2023-04-16T07:43:48.191Z,23.23
2023-04-16T07:46:17.581Z,22.93
2023-04-16T07:48:45.619Z,20.77
2023-04-16T07:51:13.717Z,19.90
2023-04-16T07:53:42.106Z,22.43
2023-04-16T07:56:10.290Z,25.73
2023-04-16T07:58:38.313Z,22.33
2023-04-16T08:01:06.547Z,22.73
2023-04-16T08:03:36.093Z,20.33
2023-04-16T08:06:04.501Z,23.23
2023-04-16T08:08:32.601Z,19.43
2023-04-16T08:11:00.663Z,19.23
2023-04-16T08:13:28.744Z,20.37
2023-04-16T08:15:58.055Z,20.77
2023-04-16T08:18:26.298Z,20.27
2023-04-16T08:20:56.101Z,22.30
2023-04-16T08:23:24.152Z,22.80
2023-04-16T08:25:53.130Z,21.80
2023-04-16T08:28:21.198Z,18.60
2023-04-16T08:30:49.233Z,18.93
2023-04-16T08:33:17.271Z,19.60
2023-04-16T08:35:45.356Z,20.43
2023-04-16T08:38:14.750Z,20.60
2023-04-16T08:40:43.824Z,19.30
2023-04-16T08:43:13.853Z,18.47
2023-04-16T08:45:42.854Z,19.33
2023-04-16T08:48:12.731Z,18.87
2023-04-16T08:50:42.243Z,20.97
2023-04-16T08:53:17.151Z,23.13
2023-04-16T08:55:48.974Z,18.87
2023-04-16T08:58:19.841Z,16.90
2023-04-16T09:00:48.526Z,24.07
2023-04-16T09:03:16.943Z,17.60
2023-04-16T09:05:45.497Z,19.10
2023-04-16T09:08:17.498Z,20.17
2023-04-16T09:10:48.984Z,21.50
2023-04-16T09:13:20.420Z,19.43
2023-04-16T09:15:48.918Z,22.83
2023-04-16T09:18:18.570Z,18.60
2023-04-16T09:20:46.890Z,20.10
2023-04-16T09:23:16.306Z,20.27
2023-04-16T09:25:44.520Z,18.60
2023-04-16T09:28:12.577Z,19.27
2023-04-16T09:30:41.040Z,18.37
2023-04-16T09:33:22.363Z,16.93
2023-04-16T09:35:53.121Z,19.80
2023-04-16T09:38:22.559Z,19.53
2023-04-16T09:41:08.146Z,17.63
2023-04-16T09:43:36.465Z,24.30
2023-04-16T09:46:08.304Z,19.47
2023-04-16T09:48:36.578Z,17.73
2023-04-16T09:51:07.735Z,18.53
2023-04-16T09:53:37.156Z,17.30
2023-04-16T09:56:07.882Z,23.07
2023-04-16T09:58:37.491Z,17.87
2023-04-16T10:01:08.397Z,21.73
2023-04-16T10:03:37.873Z,19.77
2023-04-16T10:06:10.626Z,17.00
2023-04-16T10:08:44.497Z,17.73
2023-04-16T10:11:12.772Z,19.00
2023-04-16T10:13:40.962Z,19.40
2023-04-16T10:16:09.649Z,19.27
2023-04-16T10:18:38.944Z,18.83
2023-04-16T10:21:07.970Z,17.67
2023-04-16T10:23:36.473Z,17.20
2023-04-16T10:26:07.320Z,16.77
2023-04-16T10:28:36.329Z,18.30
2023-04-16T10:31:06.516Z,18.20
2023-04-16T10:33:36.761Z,20.40
2023-04-16T10:36:12.664Z,17.17
2023-04-16T10:38:42.066Z,20.33
2023-04-16T10:41:11.583Z,18.67
2023-04-16T10:43:46.166Z,19.47
2023-04-16T10:46:23.538Z,20.80
2023-04-16T10:48:54.037Z,20.60
2023-04-16T10:51:27.996Z,18.13
2023-04-16T10:53:57.261Z,20.77
2023-04-16T10:56:27.926Z,18.23
2023-04-16T10:58:59.592Z,18.20
2023-04-16T11:01:35.418Z,19.27
2023-04-16T11:04:45.091Z,18.47
2023-04-16T11:07:19.929Z,19.97
2023-04-16T11:09:59.860Z,17.30
2023-04-16T11:12:37.191Z,19.07
2023-04-16T11:15:06.659Z,17.77
2023-04-16T11:17:39.030Z,17.70
2023-04-16T11:20:19.623Z,19.10
2023-04-16T11:22:49.009Z,18.80
2023-04-16T11:25:21.587Z,19.63
2023-04-16T11:27:51.188Z,19.73
2023-04-16T11:30:20.105Z,18.13
2023-04-16T11:32:48.585Z,18.93
2023-04-16T11:35:19.518Z,18.40
2023-04-16T11:37:48.313Z,17.87
2023-04-16T11:40:16.616Z,17.03
2023-04-16T11:42:45.783Z,17.40
2023-04-16T11:45:20.249Z,18.87
2023-04-16T11:47:51.885Z,19.60
2023-04-16T11:50:22.776Z,18.27
2023-04-16T11:52:51.772Z,19.40
2023-04-16T11:55:20.505Z,20.13
2023-04-16T11:57:48.850Z,16.53
2023-04-16T12:00:19.047Z,17.73
2023-04-16T12:02:53.198Z,20.03
2023-04-16T12:05:29.941Z,18.57
2023-04-16T12:07:58.364Z,17.57
2023-04-16T12:10:27.064Z,18.43
2023-04-16T12:12:55.246Z,20.73
2023-04-16T12:15:24.775Z,17.20
2023-04-16T12:18:07.957Z,17.97
2023-04-16T12:20:41.917Z,19.03
2023-04-16T12:23:10.666Z,17.53
2023-04-16T12:25:38.776Z,17.27
2023-04-16T12:28:06.912Z,20.03
2023-04-16T12:30:51.345Z,19.60
2023-04-16T12:33:21.155Z,19.03
2023-04-16T12:35:49.277Z,17.53
2023-04-16T12:38:20.446Z,19.43
2023-04-16T12:40:50.028Z,18.40
2023-04-16T12:43:18.463Z,17.90
2023-04-16T12:45:47.939Z,16.97
2023-04-16T12:48:16.557Z,15.10
2023-04-16T12:50:44.811Z,15.97
2023-04-16T12:53:13.075Z,16.10
2023-04-16T12:55:41.215Z,14.90
2023-04-16T12:58:12.320Z,15.73
2023-04-16T13:00:41.396Z,15.53
2023-04-16T13:03:11.115Z,16.97
2023-04-16T13:05:39.338Z,16.83
2023-04-16T13:08:07.736Z,16.63
2023-04-16T13:10:36.498Z,15.87
2023-04-16T13:13:04.562Z,14.67
2023-04-16T13:15:32.587Z,16.77
2023-04-16T13:18:00.636Z,14.87
2023-04-16T13:20:30.067Z,17.77
2023-04-16T13:22:58.398Z,15.60
2023-04-16T13:25:26.442Z,15.43
2023-04-16T13:27:54.488Z,15.10
2023-04-16T13:30:22.553Z,16.90
2023-04-16T13:32:50.772Z,17.60
2023-04-16T13:35:18.967Z,16.13
2023-04-16T13:37:48.343Z,17.17
2023-04-16T13:40:16.489Z,16.53
2023-04-16T13:42:44.507Z,16.50
2023-04-16T13:45:12.749Z,16.63
2023-04-16T13:47:42.491Z,16.73
2023-04-16T13:50:11.494Z,16.30
2023-04-16T13:52:39.528Z,16.80
2023-04-16T13:55:10.579Z,16.90
2023-04-16T13:57:38.662Z,16.60
2023-04-16T14:00:11.861Z,16.50
2023-04-16T14:02:42.463Z,16.17
2023-04-16T14:05:10.751Z,16.33
2023-04-16T14:07:39.041Z,15.20
2023-04-16T14:10:09.959Z,16.40
2023-04-16T14:12:38.296Z,15.57
2023-04-16T14:15:09.492Z,16.33
2023-04-16T14:17:38.114Z,16.93
2023-04-16T14:20:07.567Z,16.17
2023-04-16T14:22:35.598Z,17.13
2023-04-16T14:25:03.768Z,18.37
2023-04-16T14:27:34.139Z,17.70
2023-04-16T14:30:02.286Z,16.73
2023-04-16T14:32:30.522Z,16.20
2023-04-16T14:34:58.616Z,15.67
2023-04-16T14:37:27.310Z,18.37
2023-04-16T14:39:55.544Z,17.63
2023-04-16T14:42:23.669Z,17.57
2023-04-16T14:44:53.045Z,15.43
2023-04-16T14:47:21.175Z,16.07
2023-04-16T14:49:49.227Z,15.93
2023-04-16T14:52:17.477Z,16.30
2023-04-16T14:54:45.612Z,15.77
2023-04-16T14:57:13.632Z,16.27
2023-04-16T14:59:41.697Z,17.87
2023-04-16T15:02:11.277Z,17.50
2023-04-16T15:04:39.665Z,16.13
2023-04-16T15:07:08.127Z,17.53
2023-04-16T15:09:36.479Z,15.97
2023-04-16T15:12:04.733Z,17.77
2023-04-16T15:14:32.775Z,16.27
2023-04-16T15:17:00.927Z,15.63
2023-04-16T15:19:30.401Z,17.13
2023-04-16T15:21:58.432Z,15.33
2023-04-16T15:24:26.481Z,16.70
2023-04-16T15:26:54.534Z,15.10
2023-04-16T15:29:22.578Z,14.63
2023-04-16T15:31:50.794Z,16.40
2023-04-16T15:34:18.900Z,17.97
2023-04-16T15:36:48.331Z,14.83
2023-04-16T15:39:16.378Z,16.63
2023-04-16T15:41:59.770Z,15.03
2023-04-16T15:44:30.950Z,19.07
2023-04-16T15:46:59.012Z,17.93
2023-04-16T15:49:27.191Z,17.27
2023-04-16T15:51:56.981Z,14.97
2023-04-16T15:54:25.272Z,16.43
2023-04-16T15:56:53.354Z,17.53
2023-04-16T15:59:21.479Z,15.60
2023-04-16T16:01:49.626Z,17.60
2023-04-16T16:04:17.897Z,17.43
2023-04-16T16:06:46.608Z,17.20
2023-04-16T16:09:16.096Z,17.50
2023-04-16T16:11:44.118Z,17.30
2023-04-16T16:14:12.186Z,16.87
2023-04-16T16:16:40.843Z,17.33
2023-04-16T16:19:09.129Z,18.57
2023-04-16T16:21:37.689Z,16.67
2023-04-16T16:24:05.966Z,17.47
2023-04-16T16:26:35.380Z,16.27
2023-04-16T16:29:03.508Z,17.40
2023-04-16T16:31:31.727Z,16.93
2023-04-16T16:33:59.864Z,16.17
2023-04-16T16:36:29.671Z,16.10
2023-04-16T16:38:57.916Z,16.77
2023-04-16T16:41:25.951Z,17.00
2023-04-16T16:43:56.234Z,17.17
2023-04-16T16:46:24.365Z,16.70
2023-04-16T16:48:52.398Z,21.73
2023-04-16T16:51:20.464Z,16.47
2023-04-16T16:53:48.516Z,18.13
2023-04-16T16:56:16.662Z,18.00
2023-04-16T16:58:44.696Z,17.47
2023-04-16T17:01:14.187Z,17.00
2023-04-16T17:03:42.523Z,16.73
2023-04-16T17:06:11.152Z,17.47
2023-04-16T17:08:39.287Z,17.77
2023-04-16T17:11:07.338Z,17.33
2023-04-16T17:13:35.395Z,20.13
2023-04-16T17:16:03.479Z,17.40
2023-04-16T17:18:32.930Z,18.70
2023-04-16T17:21:01.116Z,16.70
2023-04-16T17:23:29.210Z,18.73
2023-04-16T17:25:57.264Z,17.27
2023-04-16T17:28:26.000Z,16.37
2023-04-16T17:30:56.921Z,19.57
2023-04-16T17:33:24.981Z,16.17
2023-04-16T17:35:54.441Z,17.63
2023-04-16T17:38:22.504Z,18.00
2023-04-16T17:40:50.554Z,18.07
2023-04-16T17:43:18.610Z,17.60
2023-04-16T17:45:46.677Z,17.47
2023-04-16T17:48:14.745Z,18.63
2023-04-16T17:50:43.044Z,17.53
2023-04-16T17:53:12.504Z,17.90
2023-04-16T17:55:42.600Z,18.03
2023-04-16T17:58:10.797Z,18.43
2023-04-16T18:00:38.837Z,17.73
2023-04-16T18:03:09.705Z,17.67
2023-04-16T18:05:37.846Z,19.27
2023-04-16T18:08:06.218Z,18.43
2023-04-16T18:10:35.646Z,19.07
2023-04-16T18:13:03.744Z,18.47
2023-04-16T18:15:31.815Z,18.70
2023-04-16T18:17:59.871Z,19.17
2023-04-16T18:20:27.947Z,18.40
2023-04-16T18:22:56.003Z,19.27
2023-04-16T18:25:33.609Z,18.43
2023-04-16T18:28:05.120Z,19.33
2023-04-16T18:30:33.794Z,19.07
2023-04-16T18:35:33.006Z,18.67
2023-04-16T18:38:01.243Z,19.43
2023-04-16T18:40:30.085Z,18.17
2023-04-16T18:42:58.130Z,18.60
2023-04-16T18:45:28.360Z,19.40
2023-04-16T18:47:58.672Z,18.87
2023-04-16T18:50:26.914Z,18.33
2023-04-16T18:52:54.954Z,17.80
2023-04-16T18:55:23.033Z,18.37
2023-04-16T18:57:51.097Z,18.17
2023-04-16T19:00:19.905Z,20.97
2023-04-16T19:02:49.450Z,20.87
2023-04-16T19:05:18.574Z,19.43
2023-04-16T19:07:46.591Z,21.83
2023-04-16T19:10:14.662Z,20.43
2023-04-16T19:12:42.709Z,18.70
2023-04-16T19:15:11.405Z,19.87
2023-04-16T19:17:39.841Z,21.00
2023-04-16T19:20:11.379Z,19.00
2023-04-16T19:22:39.737Z,18.50
2023-04-16T19:25:08.597Z,19.40
2023-04-16T19:27:36.644Z,20.40
2023-04-16T19:30:06.233Z,20.40
2023-04-16T19:32:34.302Z,20.63
2023-04-16T19:35:02.453Z,20.77
2023-04-16T19:37:31.858Z,18.47
2023-04-16T19:40:01.847Z,19.10
2023-04-16T19:42:29.878Z,20.07
2023-04-16T19:44:57.934Z,18.90
2023-04-16T19:47:26.203Z,19.80
2023-04-16T19:49:54.421Z,21.90
2023-04-16T19:52:22.472Z,19.27
2023-04-16T19:54:51.888Z,18.87
2023-04-16T19:57:19.911Z,18.67
2023-04-16T19:59:47.939Z,18.63
2023-04-16T20:02:15.971Z,18.00
2023-04-16T20:04:44.575Z,19.87
2023-04-16T20:07:12.561Z,16.80
2023-04-16T20:09:40.583Z,18.17
2023-04-16T20:12:10.033Z,17.27
2023-04-16T20:14:38.070Z,21.10
2023-04-16T20:17:09.551Z,18.77
2023-04-16T20:19:39.084Z,17.10
2023-04-16T20:22:07.479Z,18.50
2023-04-16T20:24:38.485Z,17.50
2023-04-16T20:27:06.631Z,17.40
2023-04-16T20:29:36.008Z,17.53
2023-04-16T20:32:04.034Z,16.90
2023-04-16T20:34:32.074Z,18.30
2023-04-16T20:37:00.153Z,17.60
2023-04-16T20:39:28.158Z,19.53
2023-04-16T20:41:57.492Z,18.10
2023-04-16T20:44:32.922Z,20.07
2023-04-16T20:47:02.381Z,20.20
2023-04-16T20:49:31.064Z,19.30
2023-04-16T20:51:59.114Z,18.83
2023-04-16T20:54:27.224Z,19.60
2023-04-16T20:56:55.869Z,17.70
2023-04-16T20:59:24.083Z,17.63
2023-04-16T21:01:52.954Z,19.43
2023-04-16T21:04:22.534Z,20.07
2023-04-16T21:06:53.394Z,18.23
2023-04-16T21:09:21.609Z,18.70
2023-04-16T21:11:50.008Z,17.77
2023-04-16T21:14:17.980Z,17.43
2023-04-16T21:16:46.085Z,17.90
2023-04-16T21:19:14.127Z,20.60
2023-04-16T21:21:43.563Z,17.97
2023-04-16T21:24:11.617Z,19.33
2023-04-16T21:26:39.654Z,20.27
2023-04-16T21:29:07.688Z,20.23
2023-04-16T21:31:36.036Z,18.07
2023-04-16T21:34:04.150Z,18.87
2023-04-16T21:36:34.050Z,20.60
2023-04-16T21:39:03.489Z,19.77
2023-04-16T21:41:31.553Z,20.87
2023-04-16T21:43:59.569Z,21.03
2023-04-16T21:46:27.833Z,20.63
2023-04-16T21:48:55.933Z,21.80
2023-04-16T21:51:29.112Z,19.70
2023-04-16T21:53:57.604Z,19.37
2023-04-16T21:56:27.037Z,21.63
2023-04-16T21:58:55.082Z,18.27
2023-04-16T22:01:23.141Z,19.67
2023-04-16T22:03:52.037Z,21.67
2023-04-16T22:06:20.454Z,20.93
2023-04-16T22:08:49.760Z,19.97
2023-04-16T22:11:17.890Z,21.87
2023-04-16T22:13:47.720Z,17.57
2023-04-16T22:16:16.200Z,18.70
2023-04-16T22:18:45.115Z,19.67
2023-04-16T22:21:13.152Z,21.13
2023-04-16T22:23:41.170Z,21.13
2023-04-16T22:26:09.392Z,19.93
2023-04-16T22:28:37.418Z,17.50
2023-04-16T22:31:07.085Z,20.90
2023-04-16T22:33:35.290Z,19.83
2023-04-16T22:36:03.352Z,22.63
2023-04-16T22:38:31.377Z,19.67
2023-04-16T22:40:59.422Z,20.33
2023-04-16T22:43:27.448Z,19.13
2023-04-16T22:46:04.440Z,18.90
2023-04-16T22:48:36.199Z,19.43
2023-04-16T22:51:04.665Z,22.23
2023-04-16T22:53:32.944Z,22.80
2023-04-16T22:56:01.096Z,21.03
2023-04-16T22:58:29.125Z,19.60
2023-04-16T23:00:59.453Z,22.73
2023-04-16T23:03:27.782Z,19.07
2023-04-16T23:05:57.251Z,20.00
2023-04-16T23:08:25.352Z,21.00
2023-04-16T23:10:53.409Z,21.37
2023-04-16T23:13:21.436Z,19.57
2023-04-16T23:15:49.562Z,21.33
2023-04-16T23:18:17.698Z,18.90
2023-04-16T23:20:45.729Z,21.93
2023-04-16T23:23:15.160Z,22.83
2023-04-16T23:25:43.201Z,23.53
2023-04-16T23:28:11.296Z,22.20
2023-04-16T23:30:39.375Z,22.77
2023-04-16T23:33:07.664Z,24.10
2023-04-16T23:35:35.900Z,20.90
2023-04-16T23:38:04.092Z,22.90
2023-04-16T23:40:33.462Z,20.10
2023-04-16T23:43:01.523Z,22.93
2023-04-16T23:45:29.530Z,23.00
2023-04-16T23:47:57.683Z,24.03
2023-04-16T23:50:25.768Z,28.83
2023-04-16T23:52:53.849Z,24.30
2023-04-16T23:55:22.175Z,26.27
2023-04-16T23:57:51.518Z,26.03
